sensor_id;sensor_type;location;lat;lon;timestamp;pressure;altitude;pressure_sealevel;temperature;humidity
31337;BME280;22846;42.654;23.314;2023-02-18T00:01:53;95227.59;;;23.30;50.74
31337;BME280;22846;42.654;23.314;2023-02-18T00:04:19;95218.22;;;23.31;50.97
31337;BME280;22846;42.654;23.314;2023-02-18T00:06:44;95221.34;;;23.30;50.78
31337;BME280;22846;42.654;23.314;2023-02-18T00:09:10;95208.94;;;23.29;51.03
31337;BME280;22846;42.654;23.314;2023-02-18T00:11:36;95207.78;;;23.26;51.04
31337;BME280;22846;42.654;23.314;2023-02-18T00:14:05;95205.84;;;23.27;51.09
31337;BME280;22846;42.654;23.314;2023-02-18T00:16:30;95209.75;;;23.26;50.88
31337;BME280;22846;42.654;23.314;2023-02-18T00:18:58;95205.47;;;23.25;51.02
31337;BME280;22846;42.654;23.314;2023-02-18T00:21:24;95197.38;;;23.21;51.04
31337;BME280;22846;42.654;23.314;2023-02-18T00:23:50;95200.44;;;23.23;50.70
31337;BME280;22846;42.654;23.314;2023-02-18T00:26:16;95184.47;;;23.22;50.76
31337;BME280;22846;42.654;23.314;2023-02-18T00:28:43;95184.16;;;23.20;51.04
31337;BME280;22846;42.654;23.314;2023-02-18T00:31:11;95183.38;;;23.19;50.92
31337;BME280;22846;42.654;23.314;2023-02-18T00:33:37;95168.19;;;23.18;50.71
31337;BME280;22846;42.654;23.314;2023-02-18T00:36:04;95176.78;;;23.17;50.61
31337;BME280;22846;42.654;23.314;2023-02-18T00:38:31;95167.88;;;23.13;50.97
31337;BME280;22846;42.654;23.314;2023-02-18T00:40:56;95161.63;;;23.16;50.70
31337;BME280;22846;42.654;23.314;2023-02-18T00:43:22;95179.16;;;23.15;51.04
31337;BME280;22846;42.654;23.314;2023-02-18T00:45:47;95159.38;;;23.11;50.74
31337;BME280;22846;42.654;23.314;2023-02-18T00:48:13;95160.06;;;23.15;51.04
31337;BME280;22846;42.654;23.314;2023-02-18T00:50:38;95176.50;;;23.11;50.57
31337;BME280;22846;42.654;23.314;2023-02-18T00:53:04;95169.13;;;23.08;50.90
31337;BME280;22846;42.654;23.314;2023-02-18T00:55:29;95181.59;;;23.09;50.80
31337;BME280;22846;42.654;23.314;2023-02-18T00:57:55;95176.91;;;23.10;50.99
31337;BME280;22846;42.654;23.314;2023-02-18T01:00:20;95163.28;;;23.10;50.59
31337;BME280;22846;42.654;23.314;2023-02-18T01:02:46;95161.81;;;23.06;50.72
31337;BME280;22846;42.654;23.314;2023-02-18T01:05:11;95162.94;;;23.08;51.11
31337;BME280;22846;42.654;23.314;2023-02-18T01:07:37;95153.19;;;23.07;51.00
31337;BME280;22846;42.654;23.314;2023-02-18T01:10:02;95163.00;;;23.05;50.49
31337;BME280;22846;42.654;23.314;2023-02-18T01:12:28;95154.03;;;23.04;50.86
31337;BME280;22846;42.654;23.314;2023-02-18T01:14:53;95164.94;;;23.04;50.67
31337;BME280;22846;42.654;23.314;2023-02-18T01:17:19;95159.50;;;23.01;50.65
31337;BME280;22846;42.654;23.314;2023-02-18T01:19:44;95166.50;;;23.02;50.77
31337;BME280;22846;42.654;23.314;2023-02-18T01:22:10;95160.28;;;23.01;50.64
31337;BME280;22846;42.654;23.314;2023-02-18T01:24:35;95163.78;;;23.02;51.00
31337;BME280;22846;42.654;23.314;2023-02-18T01:27:02;95145.94;;;22.97;51.00
31337;BME280;22846;42.654;23.314;2023-02-18T01:29:28;95156.03;;;23.00;50.80
31337;BME280;22846;42.654;23.314;2023-02-18T01:31:53;95160.69;;;23.00;50.65
31337;BME280;22846;42.654;23.314;2023-02-18T01:34:18;95170.84;;;22.99;50.66
31337;BME280;22846;42.654;23.314;2023-02-18T01:36:44;95150.28;;;22.95;50.74
31337;BME280;22846;42.654;23.314;2023-02-18T01:39:09;95162.28;;;22.97;50.83
31337;BME280;22846;42.654;23.314;2023-02-18T01:41:35;95155.31;;;22.96;50.53
31337;BME280;22846;42.654;23.314;2023-02-18T01:44:17;95154.53;;;22.96;50.87
31337;BME280;22846;42.654;23.314;2023-02-18T01:46:43;95159.22;;;22.95;50.93
31337;BME280;22846;42.654;23.314;2023-02-18T01:49:09;95157.69;;;22.94;51.01
31337;BME280;22846;42.654;23.314;2023-02-18T01:51:39;95177.94;;;22.93;50.52
31337;BME280;22846;42.654;23.314;2023-02-18T01:57:37;95174.44;;;22.93;50.70
31337;BME280;22846;42.654;23.314;2023-02-18T02:00:08;95189.25;;;22.92;51.01
31337;BME280;22846;42.654;23.314;2023-02-18T02:02:38;95171.34;;;22.91;51.14
31337;BME280;22846;42.654;23.314;2023-02-18T02:05:05;95176.03;;;22.90;50.87
31337;BME280;22846;42.654;23.314;2023-02-18T02:07:30;95179.59;;;22.87;50.50
31337;BME280;22846;42.654;23.314;2023-02-18T02:09:57;95179.94;;;22.89;51.06
31337;BME280;22846;42.654;23.314;2023-02-18T02:17:59;95161.69;;;22.86;50.79
31337;BME280;22846;42.654;23.314;2023-02-18T02:29:49;95154.75;;;22.82;50.59
31337;BME280;22846;42.654;23.314;2023-02-18T02:35:08;95150.22;;;22.75;50.73
31337;BME280;22846;42.654;23.314;2023-02-18T02:43:51;95149.38;;;22.78;50.96
31337;BME280;22846;42.654;23.314;2023-02-18T02:46:18;95135.00;;;22.78;51.00
31337;BME280;22846;42.654;23.314;2023-02-18T02:48:53;95144.34;;;22.77;50.96
31337;BME280;22846;42.654;23.314;2023-02-18T02:53:54;95128.00;;;22.77;50.72
31337;BME280;22846;42.654;23.314;2023-02-18T02:56:22;95140.88;;;22.76;50.81
31337;BME280;22846;42.654;23.314;2023-02-18T02:59:00;95137.41;;;22.72;50.70
31337;BME280;22846;42.654;23.314;2023-02-18T03:01:35;95139.31;;;22.75;50.90
31337;BME280;22846;42.654;23.314;2023-02-18T03:04:08;95152.56;;;22.73;50.94
31337;BME280;22846;42.654;23.314;2023-02-18T03:14:55;95171.28;;;22.71;50.90
31337;BME280;22846;42.654;23.314;2023-02-18T03:17:26;95158.09;;;22.70;50.64
31337;BME280;22846;42.654;23.314;2023-02-18T03:19:58;95153.44;;;22.67;50.53
31337;BME280;22846;42.654;23.314;2023-02-18T03:22:34;95153.06;;;22.68;50.68
31337;BME280;22846;42.654;23.314;2023-02-18T03:25:03;95162.34;;;22.71;50.58
31337;BME280;22846;42.654;23.314;2023-02-18T03:27:58;95175.19;;;22.70;50.85
31337;BME280;22846;42.654;23.314;2023-02-18T03:30:33;95176.38;;;22.69;50.70
31337;BME280;22846;42.654;23.314;2023-02-18T03:33:03;95190.00;;;22.69;50.80
31337;BME280;22846;42.654;23.314;2023-02-18T03:35:29;95185.38;;;22.66;50.99
31337;BME280;22846;42.654;23.314;2023-02-18T03:38:27;95199.38;;;22.68;50.91
31337;BME280;22846;42.654;23.314;2023-02-18T03:40:54;95190.00;;;22.69;50.85
31337;BME280;22846;42.654;23.314;2023-02-18T03:43:19;95197.09;;;22.63;50.38
31337;BME280;22846;42.654;23.314;2023-02-18T03:45:45;95209.47;;;22.68;50.63
31337;BME280;22846;42.654;23.314;2023-02-18T03:48:10;95210.28;;;22.68;50.54
31337;BME280;22846;42.654;23.314;2023-02-18T03:50:36;95214.94;;;22.68;50.55
31337;BME280;22846;42.654;23.314;2023-02-18T03:53:01;95206.00;;;22.67;50.59
31337;BME280;22846;42.654;23.314;2023-02-18T03:55:26;95214.94;;;22.68;50.80
31337;BME280;22846;42.654;23.314;2023-02-18T03:57:52;95218.84;;;22.67;50.66
31337;BME280;22846;42.654;23.314;2023-02-18T04:00:18;95207.56;;;22.65;50.74
31337;BME280;22846;42.654;23.314;2023-02-18T04:02:44;95197.91;;;22.60;50.66
31337;BME280;22846;42.654;23.314;2023-02-18T04:05:11;95197.88;;;22.64;50.50
31337;BME280;22846;42.654;23.314;2023-02-18T04:07:37;95194.38;;;22.63;50.76
31337;BME280;22846;42.654;23.314;2023-02-18T04:10:04;95194.38;;;22.63;50.52
31337;BME280;22846;42.654;23.314;2023-02-18T04:12:30;95185.44;;;22.63;50.33
31337;BME280;22846;42.654;23.314;2023-02-18T04:14:55;95171.19;;;22.52;50.39
31337;BME280;22846;42.654;23.314;2023-02-18T04:17:21;95188.56;;;22.61;50.38
31337;BME280;22846;42.654;23.314;2023-02-18T04:19:46;95181.16;;;22.62;50.38
31337;BME280;22846;42.654;23.314;2023-02-18T04:22:11;95183.13;;;22.61;50.48
31337;BME280;22846;42.654;23.314;2023-02-18T04:24:37;95174.19;;;22.61;50.91
31337;BME280;22846;42.654;23.314;2023-02-18T04:27:02;95180.38;;;22.61;50.44
31337;BME280;22846;42.654;23.314;2023-02-18T04:29:28;95169.91;;;22.60;50.47
31337;BME280;22846;42.654;23.314;2023-02-18T04:31:53;95169.91;;;22.60;50.34
31337;BME280;22846;42.654;23.314;2023-02-18T04:34:19;95162.50;;;22.60;50.48
31337;BME280;22846;42.654;23.314;2023-02-18T04:36:44;95159.44;;;22.58;50.81
31337;BME280;22846;42.654;23.314;2023-02-18T04:39:10;95161.38;;;22.58;50.37
31337;BME280;22846;42.654;23.314;2023-02-18T04:41:35;95171.50;;;22.57;50.55
31337;BME280;22846;42.654;23.314;2023-02-18T04:44:01;95162.59;;;22.53;50.44
31337;BME280;22846;42.654;23.314;2023-02-18T04:46:26;95171.50;;;22.57;50.35
31337;BME280;22846;42.654;23.314;2023-02-18T04:48:52;95171.50;;;22.57;50.42
31337;BME280;22846;42.654;23.314;2023-02-18T04:51:17;95185.53;;;22.56;50.56
31337;BME280;22846;42.654;23.314;2023-02-18T04:53:42;95185.53;;;22.56;50.31
31337;BME280;22846;42.654;23.314;2023-02-18T04:56:08;95178.59;;;22.51;50.55
31337;BME280;22846;42.654;23.314;2023-02-18T04:58:33;95171.16;;;22.55;50.51
31337;BME280;22846;42.654;23.314;2023-02-18T05:01:00;95175.84;;;22.55;50.51
31337;BME280;22846;42.654;23.314;2023-02-18T05:03:26;95191.03;;;22.52;50.18
31337;BME280;22846;42.654;23.314;2023-02-18T05:05:51;95186.72;;;22.55;50.57
31337;BME280;22846;42.654;23.314;2023-02-18T05:08:17;95194.13;;;22.54;50.53
31337;BME280;22846;42.654;23.314;2023-02-18T05:10:43;95217.44;;;22.55;50.43
31337;BME280;22846;42.654;23.314;2023-02-18T05:13:09;95224.06;;;22.54;50.39
31337;BME280;22846;42.654;23.314;2023-02-18T05:15:34;95215.91;;;22.54;50.74
31337;BME280;22846;42.654;23.314;2023-02-18T05:17:59;95203.47;;;22.53;50.45
31337;BME280;22846;42.654;23.314;2023-02-18T05:20:25;95204.25;;;22.54;50.43
31337;BME280;22846;42.654;23.314;2023-02-18T05:22:50;95197.66;;;22.51;50.18
31337;BME280;22846;42.654;23.314;2023-02-18T05:25:16;95198.06;;;22.50;50.44
31337;BME280;22846;42.654;23.314;2023-02-18T05:27:42;95192.19;;;22.51;50.27
31337;BME280;22846;42.654;23.314;2023-02-18T05:30:07;95170.13;;;22.46;50.63
31337;BME280;22846;42.654;23.314;2023-02-18T05:32:33;95172.38;;;22.51;50.35
31337;BME280;22846;42.654;23.314;2023-02-18T05:34:58;95165.75;;;22.52;50.51
31337;BME280;22846;42.654;23.314;2023-02-18T05:37:24;95170.84;;;22.50;50.30
31337;BME280;22846;42.654;23.314;2023-02-18T05:39:49;95168.47;;;22.52;50.34
31337;BME280;22846;42.654;23.314;2023-02-18T05:42:15;95163.91;;;22.45;50.58
31337;BME280;22846;42.654;23.314;2023-02-18T05:44:40;95162.66;;;22.50;50.49
31337;BME280;22846;42.654;23.314;2023-02-18T05:47:08;95172.00;;;22.49;50.47
31337;BME280;22846;42.654;23.314;2023-02-18T05:49:34;95186.41;;;22.49;50.63
31337;BME280;22846;42.654;23.314;2023-02-18T05:52:00;95193.81;;;22.49;50.51
31337;BME280;22846;42.654;23.314;2023-02-18T05:54:26;95194.97;;;22.48;50.61
31337;BME280;22846;42.654;23.314;2023-02-18T05:56:52;95201.22;;;22.48;50.33
31337;BME280;22846;42.654;23.314;2023-02-18T05:59:18;95187.28;;;22.43;50.30
31337;BME280;22846;42.654;23.314;2023-02-18T06:01:44;95200.16;;;22.42;50.27
31337;BME280;22846;42.654;23.314;2023-02-18T06:04:09;95210.94;;;22.49;50.11
31337;BME280;22846;42.654;23.314;2023-02-18T06:06:35;95214.03;;;22.48;50.14
31337;BME280;22846;42.654;23.314;2023-02-18T06:09:01;95221.47;;;22.47;50.29
31337;BME280;22846;42.654;23.314;2023-02-18T06:11:26;95207.84;;;22.47;50.08
31337;BME280;22846;42.654;23.314;2023-02-18T06:13:52;95203.53;;;22.50;50.18
31337;BME280;22846;42.654;23.314;2023-02-18T06:16:17;95203.94;;;22.48;50.37
31337;BME280;22846;42.654;23.314;2023-02-18T06:18:42;95203.63;;;22.43;50.06
31337;BME280;22846;42.654;23.314;2023-02-18T06:21:08;95207.41;;;22.49;50.12
31337;BME280;22846;42.654;23.314;2023-02-18T06:23:33;95196.19;;;22.47;50.12
31337;BME280;22846;42.654;23.314;2023-02-18T06:25:59;95196.53;;;22.49;50.22
31337;BME280;22846;42.654;23.314;2023-02-18T06:28:24;95200.78;;;22.50;50.37
31337;BME280;22846;42.654;23.314;2023-02-18T06:30:50;95192.63;;;22.50;50.12
31337;BME280;22846;42.654;23.314;2023-02-18T06:33:15;95196.53;;;22.49;49.95
31337;BME280;22846;42.654;23.314;2023-02-18T06:35:41;95191.88;;;22.49;49.95
31337;BME280;22846;42.654;23.314;2023-02-18T06:38:07;95181.72;;;22.50;50.12
31337;BME280;22846;42.654;23.314;2023-02-18T06:40:32;95180.56;;;22.51;50.06
31337;BME280;22846;42.654;23.314;2023-02-18T06:42:58;95183.28;;;22.51;50.20
31337;BME280;22846;42.654;23.314;2023-02-18T06:45:23;95195.72;;;22.52;50.07
31337;BME280;22846;42.654;23.314;2023-02-18T06:47:49;95171.41;;;22.38;49.77
31337;BME280;22846;42.654;23.314;2023-02-18T06:50:14;95186.41;;;22.49;49.93
31337;BME280;22846;42.654;23.314;2023-02-18T06:52:40;95181.72;;;22.50;50.04
31337;BME280;22846;42.654;23.314;2023-02-18T06:55:06;95189.09;;;22.53;50.11
31337;BME280;22846;42.654;23.314;2023-02-18T06:57:33;95189.09;;;22.53;50.16
31337;BME280;22846;42.654;23.314;2023-02-18T06:59:59;95188.31;;;22.52;49.87
31337;BME280;22846;42.654;23.314;2023-02-18T07:02:26;95182.16;;;22.48;50.13
31337;BME280;22846;42.654;23.314;2023-02-18T07:04:51;95190.63;;;22.54;49.98
31337;BME280;22846;42.654;23.314;2023-02-18T07:07:17;95185.13;;;22.57;49.76
31337;BME280;22846;42.654;23.314;2023-02-18T07:09:42;95191.53;;;22.70;49.52
31337;BME280;22846;42.654;23.314;2023-02-18T07:12:08;95179.44;;;22.98;47.68
31337;BME280;22846;42.654;23.314;2023-02-18T07:14:33;95198.66;;;23.13;48.15
31337;BME280;22846;42.654;23.314;2023-02-18T07:16:59;95168.66;;;23.36;47.94
31337;BME280;22846;42.654;23.314;2023-02-18T07:19:24;95169.91;;;23.51;47.24
31337;BME280;22846;42.654;23.314;2023-02-18T07:21:49;95168.06;;;23.68;46.68
31337;BME280;22846;42.654;23.314;2023-02-18T07:24:15;95163.19;;;23.79;46.28
31337;BME280;22846;42.654;23.314;2023-02-18T07:26:40;95170.41;;;23.89;45.68
31337;BME280;22846;42.654;23.314;2023-02-18T07:29:06;95167.88;;;23.97;46.04
31337;BME280;22846;42.654;23.314;2023-02-18T07:31:31;95165.00;;;24.04;45.85
31337;BME280;22846;42.654;23.314;2023-02-18T07:33:56;95167.94;;;24.13;45.81
31337;BME280;22846;42.654;23.314;2023-02-18T07:36:22;95162.03;;;24.15;45.79
31337;BME280;22846;42.654;23.314;2023-02-18T07:38:47;95180.25;;;24.21;45.45
31337;BME280;22846;42.654;23.314;2023-02-18T07:41:21;95181.78;;;24.22;45.32
31337;BME280;22846;42.654;23.314;2023-02-18T07:43:47;95208.75;;;24.20;45.28
31337;BME280;22846;42.654;23.314;2023-02-18T07:46:13;95197.31;;;24.25;45.75
31337;BME280;22846;42.654;23.314;2023-02-18T07:48:38;95206.97;;;24.30;45.37
31337;BME280;22846;42.654;23.314;2023-02-18T07:51:06;95210.50;;;24.30;45.28
31337;BME280;22846;42.654;23.314;2023-02-18T07:53:31;95197.25;;;24.29;43.58
31337;BME280;22846;42.654;23.314;2023-02-18T07:55:57;95195.94;;;24.17;44.35
31337;BME280;22846;42.654;23.314;2023-02-18T07:58:29;95216.03;;;24.27;44.76
31337;BME280;22846;42.654;23.314;2023-02-18T08:00:56;95205.88;;;24.27;44.94
31337;BME280;22846;42.654;23.314;2023-02-18T08:03:26;95197.00;;;24.23;45.25
31337;BME280;22846;42.654;23.314;2023-02-18T08:05:52;95184.31;;;24.13;45.16
31337;BME280;22846;42.654;23.314;2023-02-18T08:08:21;95187.44;;;24.12;44.73
31337;BME280;22846;42.654;23.314;2023-02-18T08:10:47;95198.53;;;24.05;45.06
31337;BME280;22846;42.654;23.314;2023-02-18T08:13:13;95188.31;;;24.09;44.97
31337;BME280;22846;42.654;23.314;2023-02-18T08:15:39;95197.97;;;24.13;45.08
31337;BME280;22846;42.654;23.314;2023-02-18T08:18:06;95194.66;;;24.22;44.96
31337;BME280;22846;42.654;23.314;2023-02-18T08:20:35;95195.72;;;24.28;45.08
31337;BME280;22846;42.654;23.314;2023-02-18T08:23:01;95184.28;;;24.33;44.87
31337;BME280;22846;42.654;23.314;2023-02-18T08:25:26;95181.69;;;24.45;45.05
31337;BME280;22846;42.654;23.314;2023-02-18T08:27:52;95176.50;;;24.51;45.07
31337;BME280;22846;42.654;23.314;2023-02-18T08:30:17;95171.66;;;24.58;45.31
31337;BME280;22846;42.654;23.314;2023-02-18T08:32:43;95165.69;;;24.63;44.98
31337;BME280;22846;42.654;23.314;2023-02-18T08:35:09;95144.81;;;24.53;44.67
31337;BME280;22846;42.654;23.314;2023-02-18T08:37:35;95167.47;;;24.70;44.63
31337;BME280;22846;42.654;23.314;2023-02-18T08:40:01;95164.66;;;24.73;45.10
31337;BME280;22846;42.654;23.314;2023-02-18T08:42:27;95162.59;;;24.77;44.84
31337;BME280;22846;42.654;23.314;2023-02-18T08:44:52;95169.19;;;24.79;44.89
31337;BME280;22846;42.654;23.314;2023-02-18T08:47:18;95167.56;;;24.82;44.85
31337;BME280;22846;42.654;23.314;2023-02-18T08:49:43;95143.19;;;24.72;44.61
31337;BME280;22846;42.654;23.314;2023-02-18T08:52:09;95161.22;;;24.85;44.54
31337;BME280;22846;42.654;23.314;2023-02-18T08:54:34;95176.44;;;24.86;44.49
31337;BME280;22846;42.654;23.314;2023-02-18T08:56:59;95170.56;;;24.87;44.78
31337;BME280;22846;42.654;23.314;2023-02-18T08:59:25;95179.53;;;24.88;44.85
31337;BME280;22846;42.654;23.314;2023-02-18T09:01:50;95190.81;;;24.90;44.68
31337;BME280;22846;42.654;23.314;2023-02-18T09:04:16;95184.91;;;24.91;44.63
31337;BME280;22846;42.654;23.314;2023-02-18T09:06:42;95180.22;;;24.92;44.47
31337;BME280;22846;42.654;23.314;2023-02-18T09:09:07;95177.50;;;24.92;44.32
31337;BME280;22846;42.654;23.314;2023-02-18T09:11:35;95186.38;;;24.96;44.44
31337;BME280;22846;42.654;23.314;2023-02-18T09:14:00;95190.19;;;24.98;44.63
31337;BME280;22846;42.654;23.314;2023-02-18T09:16:27;95185.53;;;24.99;44.65
31337;BME280;22846;42.654;23.314;2023-02-18T09:18:54;95184.31;;;25.00;44.20
31337;BME280;22846;42.654;23.314;2023-02-18T09:21:21;95172.19;;;25.01;44.21
31337;BME280;22846;42.654;23.314;2023-02-18T09:23:48;95183.44;;;25.03;44.50
31337;BME280;22846;42.654;23.314;2023-02-18T09:26:15;95172.50;;;25.03;44.60
31337;BME280;22846;42.654;23.314;2023-02-18T09:28:41;95166.72;;;25.01;44.65
31337;BME280;22846;42.654;23.314;2023-02-18T09:31:13;95153.38;;;25.03;44.65
31337;BME280;22846;42.654;23.314;2023-02-18T09:33:43;95150.06;;;25.11;44.33
31337;BME280;22846;42.654;23.314;2023-02-18T09:36:09;95141.44;;;25.13;44.54
31337;BME280;22846;42.654;23.314;2023-02-18T09:38:34;95144.50;;;25.15;44.47
31337;BME280;22846;42.654;23.314;2023-02-18T09:41:02;95145.16;;;25.19;44.20
31337;BME280;22846;42.654;23.314;2023-02-18T09:43:38;95143.56;;;25.21;44.08
31337;BME280;22846;42.654;23.314;2023-02-18T09:46:18;95149.78;;;25.22;44.08
31337;BME280;22846;42.654;23.314;2023-02-18T09:48:45;95140.75;;;25.25;44.17
31337;BME280;22846;42.654;23.314;2023-02-18T09:51:15;95146.56;;;25.27;44.16
31337;BME280;22846;42.654;23.314;2023-02-18T09:53:42;95144.91;;;25.29;43.82
31337;BME280;22846;42.654;23.314;2023-02-18T09:56:12;95153.13;;;25.29;43.94
31337;BME280;22846;42.654;23.314;2023-02-18T09:58:39;95146.47;;;25.30;44.04
31337;BME280;22846;42.654;23.314;2023-02-18T10:01:32;95151.94;;;25.30;43.90
31337;BME280;22846;42.654;23.314;2023-02-18T10:04:03;95142.19;;;25.29;44.30
31337;BME280;22846;42.654;23.314;2023-02-18T10:06:33;95137.81;;;25.32;44.06
31337;BME280;22846;42.654;23.314;2023-02-18T10:09:03;95128.84;;;25.31;44.17
31337;BME280;22846;42.654;23.314;2023-02-18T10:11:41;95128.75;;;25.35;43.67
31337;BME280;22846;42.654;23.314;2023-02-18T10:14:13;95134.53;;;25.37;44.01
31337;BME280;22846;42.654;23.314;2023-02-18T10:16:39;95120.44;;;25.38;43.93
31337;BME280;22846;42.654;23.314;2023-02-18T10:22:00;95125.81;;;25.42;43.78
31337;BME280;22846;42.654;23.314;2023-02-18T10:24:47;95131.94;;;25.46;43.70
31337;BME280;22846;42.654;23.314;2023-02-18T10:27:22;95125.28;;;25.47;43.39
31337;BME280;22846;42.654;23.314;2023-02-18T10:29:49;95121.34;;;25.48;43.36
31337;BME280;22846;42.654;23.314;2023-02-18T10:32:29;95124.00;;;25.51;43.53
31337;BME280;22846;42.654;23.314;2023-02-18T10:35:36;95112.63;;;25.53;43.70
31337;BME280;22846;42.654;23.314;2023-02-18T10:38:17;95113.38;;;25.53;43.35
31337;BME280;22846;42.654;23.314;2023-02-18T10:40:59;95112.94;;;25.55;43.36
31337;BME280;22846;42.654;23.314;2023-02-18T10:46:38;95093.38;;;25.56;43.42
31337;BME280;22846;42.654;23.314;2023-02-18T10:51:36;95089.34;;;25.61;43.04
31337;BME280;22846;42.654;23.314;2023-02-18T10:54:06;95090.09;;;25.61;43.16
31337;BME280;22846;42.654;23.314;2023-02-18T10:56:45;95074.44;;;25.62;43.07
31337;BME280;22846;42.654;23.314;2023-02-18T10:59:22;95071.28;;;25.63;43.17
31337;BME280;22846;42.654;23.314;2023-02-18T11:02:16;95070.81;;;25.64;43.12
31337;BME280;22846;42.654;23.314;2023-02-18T11:04:44;95067.84;;;25.59;43.51
31337;BME280;22846;42.654;23.314;2023-02-18T11:07:22;95063.03;;;25.51;43.75
31337;BME280;22846;42.654;23.314;2023-02-18T11:09:53;95062.03;;;25.45;43.70
31337;BME280;22846;42.654;23.314;2023-02-18T11:12:26;95050.41;;;25.41;43.45
31337;BME280;22846;42.654;23.314;2023-02-18T11:15:15;95038.91;;;25.46;43.34
31337;BME280;22846;42.654;23.314;2023-02-18T11:17:44;95045.63;;;25.45;43.62
31337;BME280;22846;42.654;23.314;2023-02-18T11:20:29;95042.09;;;25.44;43.72
31337;BME280;22846;42.654;23.314;2023-02-18T11:22:57;95038.91;;;25.46;43.42
31337;BME280;22846;42.654;23.314;2023-02-18T11:25:30;95029.19;;;25.45;43.67
31337;BME280;22846;42.654;23.314;2023-02-18T11:30:43;95020.06;;;25.35;44.02
31337;BME280;22846;42.654;23.314;2023-02-18T11:33:24;95001.03;;;25.32;43.67
31337;BME280;22846;42.654;23.314;2023-02-18T11:35:55;95001.03;;;25.32;43.46
31337;BME280;22846;42.654;23.314;2023-02-18T11:38:28;95000.16;;;25.35;43.49
31337;BME280;22846;42.654;23.314;2023-02-18T11:41:15;94987.47;;;25.41;43.45
31337;BME280;22846;42.654;23.314;2023-02-18T11:43:45;94988.16;;;25.45;43.23
31337;BME280;22846;42.654;23.314;2023-02-18T11:46:15;94979.84;;;25.48;43.25
31337;BME280;22846;42.654;23.314;2023-02-18T11:48:41;94978.94;;;25.51;43.41
31337;BME280;22846;42.654;23.314;2023-02-18T11:51:29;94973.25;;;25.46;43.68
31337;BME280;22846;42.654;23.314;2023-02-18T11:56:34;94946.50;;;25.25;43.63
31337;BME280;22846;42.654;23.314;2023-02-18T11:59:02;94956.63;;;25.40;43.41
31337;BME280;22846;42.654;23.314;2023-02-18T12:04:13;94941.41;;;25.52;43.00
31337;BME280;22846;42.654;23.314;2023-02-18T12:09:22;94941.53;;;25.61;43.34
31337;BME280;22846;42.654;23.314;2023-02-18T12:11:54;94940.00;;;25.60;43.29
31337;BME280;22846;42.654;23.314;2023-02-18T12:14:22;94933.84;;;25.56;43.54
31337;BME280;22846;42.654;23.314;2023-02-18T12:19:55;94945.56;;;25.44;42.97
31337;BME280;22846;42.654;23.314;2023-02-18T12:32:56;94927.84;;;25.61;43.03
31337;BME280;22846;42.654;23.314;2023-02-18T12:35:39;94923.91;;;25.62;43.18
31337;BME280;22846;42.654;23.314;2023-02-18T12:55:45;94892.16;;;25.64;42.99
31337;BME280;22846;42.654;23.314;2023-02-18T12:58:28;94881.84;;;25.56;30.91
31337;BME280;22846;42.654;23.314;2023-02-18T13:11:48;94897.47;;;24.89;30.37
31337;BME280;22846;42.654;23.314;2023-02-18T13:14:24;94898.47;;;24.83;27.49
31337;BME280;22846;42.654;23.314;2023-02-18T13:16:54;94916.53;;;24.65;26.18
31337;BME280;22846;42.654;23.314;2023-02-18T13:19:26;94887.06;;;24.44;25.55
31337;BME280;22846;42.654;23.314;2023-02-18T13:21:57;94896.72;;;24.32;25.63
31337;BME280;22846;42.654;23.314;2023-02-18T13:24:34;94902.03;;;24.23;24.81
31337;BME280;22846;42.654;23.314;2023-02-18T13:32:25;94891.59;;;24.18;35.21
31337;BME280;22846;42.654;23.314;2023-02-18T13:35:03;94896.13;;;24.25;35.49
31337;BME280;22846;42.654;23.314;2023-02-18T13:40:03;94891.84;;;24.24;28.60
31337;BME280;22846;42.654;23.314;2023-02-18T13:42:35;94890.94;;;24.14;26.36
31337;BME280;22846;42.654;23.314;2023-02-18T13:45:22;94883.09;;;24.00;26.84
31337;BME280;22846;42.654;23.314;2023-02-18T13:47:49;94879.84;;;23.90;26.73
31337;BME280;22846;42.654;23.314;2023-02-18T13:52:40;94877.91;;;23.90;32.45
31337;BME280;22846;42.654;23.314;2023-02-18T13:55:18;94886.34;;;23.95;33.35
31337;BME280;22846;42.654;23.314;2023-02-18T13:57:47;94879.59;;;24.00;34.53
31337;BME280;22846;42.654;23.314;2023-02-18T14:00:22;94876.78;;;24.03;35.79
31337;BME280;22846;42.654;23.314;2023-02-18T14:03:18;94881.63;;;24.12;35.93
31337;BME280;22846;42.654;23.314;2023-02-18T14:05:44;94872.94;;;24.17;36.47
31337;BME280;22846;42.654;23.314;2023-02-18T14:08:14;94884.59;;;24.17;36.81
31337;BME280;22846;42.654;23.314;2023-02-18T14:11:32;94873.19;;;24.22;37.61
31337;BME280;22846;42.654;23.314;2023-02-18T14:27:33;94889.66;;;24.19;39.30
31337;BME280;22846;42.654;23.314;2023-02-18T14:30:18;94892.38;;;24.19;34.31
31337;BME280;22846;42.654;23.314;2023-02-18T14:32:50;94882.41;;;24.12;35.39
31337;BME280;22846;42.654;23.314;2023-02-18T14:43:05;94900.50;;;24.06;39.49
31337;BME280;22846;42.654;23.314;2023-02-18T14:45:45;94892.63;;;24.08;39.44
31337;BME280;22846;42.654;23.314;2023-02-18T14:51:24;94895.34;;;24.24;41.85
31337;BME280;22846;42.654;23.314;2023-02-18T14:53:51;94883.38;;;24.34;41.19
31337;BME280;22846;42.654;23.314;2023-02-18T14:56:18;94869.63;;;24.38;40.81
31337;BME280;22846;42.654;23.314;2023-02-18T14:58:47;94878.00;;;24.47;40.46
31337;BME280;22846;42.654;23.314;2023-02-18T15:01:21;94880.31;;;24.48;40.70
31337;BME280;22846;42.654;23.314;2023-02-18T15:03:49;94886.97;;;24.47;40.04
31337;BME280;22846;42.654;23.314;2023-02-18T15:08:47;94870.41;;;24.38;41.23
31337;BME280;22846;42.654;23.314;2023-02-18T15:11:12;94874.09;;;24.32;41.01
31337;BME280;22846;42.654;23.314;2023-02-18T15:13:43;94883.91;;;24.29;41.40
31337;BME280;22846;42.654;23.314;2023-02-18T15:16:19;94881.78;;;24.21;41.71